createdAt,value
2019-05-22T00:00:48.831Z,10.38
2019-05-22T00:03:21.969Z,10.39
2019-05-22T00:05:54.227Z,10.35
2019-05-22T00:08:25.433Z,10.34
2019-05-22T00:11:01.845Z,10.32
2019-05-22T00:13:32.160Z,10.39
2019-05-22T00:16:03.999Z,10.36
2019-05-22T00:18:35.388Z,10.32
2019-05-22T00:21:07.548Z,10.27
2019-05-22T00:23:38.587Z,10.30
2019-05-22T00:26:11.129Z,10.32
2019-05-22T00:28:41.606Z,10.34
2019-05-22T00:31:13.906Z,10.31
2019-05-22T00:33:44.170Z,10.38
2019-05-22T00:36:17.049Z,10.35
2019-05-22T00:38:47.450Z,10.34
2019-05-22T00:41:20.761Z,10.35
2019-05-22T00:43:51.607Z,10.36
2019-05-22T00:46:23.482Z,10.39
2019-05-22T00:48:54.410Z,10.36
2019-05-22T00:51:47.201Z,10.36
2019-05-22T00:54:34.564Z,10.41
2019-05-22T00:57:24.282Z,10.42
2019-05-22T01:00:00.476Z,10.38
2019-05-22T01:02:33.411Z,10.45
2019-05-22T01:05:05.032Z,10.44
2019-05-22T01:07:40.162Z,10.47
2019-05-22T01:10:12.119Z,10.47
2019-05-22T01:12:44.059Z,10.50
2019-05-22T01:15:20.703Z,10.44
2019-05-22T01:17:51.385Z,10.42
2019-05-22T01:20:24.403Z,10.43
2019-05-22T01:22:57.298Z,10.40
2019-05-22T01:25:28.955Z,10.40
2019-05-22T01:28:02.360Z,10.42
2019-05-22T01:30:52.262Z,10.40
2019-05-22T01:33:26.488Z,10.49
2019-05-22T01:36:13.647Z,10.46
2019-05-22T01:38:45.512Z,10.46
2019-05-22T01:41:21.062Z,10.47
2019-05-22T01:43:52.782Z,10.47
2019-05-22T01:46:24.675Z,10.49
2019-05-22T01:48:59.626Z,10.46
2019-05-22T01:51:31.493Z,10.54
2019-05-22T01:54:02.692Z,10.55
2019-05-22T01:56:34.820Z,10.55
2019-05-22T01:59:07.680Z,10.49
2019-05-22T02:01:40.267Z,10.51
2019-05-22T02:04:10.388Z,10.50
2019-05-22T02:06:41.507Z,10.46
2019-05-22T02:09:33.869Z,10.48
2019-05-22T02:12:10.471Z,10.45
2019-05-22T02:14:44.589Z,10.45
2019-05-22T02:17:18.288Z,10.45
2019-05-22T02:19:49.018Z,10.45
2019-05-22T02:22:19.212Z,10.51
2019-05-22T02:24:51.882Z,10.45
2019-05-22T02:27:24.037Z,10.48
2019-05-22T02:29:56.149Z,10.45
2019-05-22T02:32:28.759Z,10.43
2019-05-22T02:34:58.966Z,10.46
2019-05-22T02:37:30.599Z,10.44
2019-05-22T02:40:01.292Z,10.44
2019-05-22T02:42:32.995Z,10.39
2019-05-22T02:45:05.161Z,10.44
2019-05-22T02:47:36.766Z,10.41
2019-05-22T02:50:08.188Z,10.44
2019-05-22T02:52:38.582Z,10.41
2019-05-22T02:55:08.777Z,10.48
2019-05-22T02:57:38.940Z,10.50
2019-05-22T03:00:10.962Z,10.56
2019-05-22T03:02:50.527Z,10.55
2019-05-22T03:05:22.805Z,10.54
2019-05-22T03:07:53.798Z,10.51
2019-05-22T03:10:26.643Z,10.55
2019-05-22T03:12:58.532Z,10.55
2019-05-22T03:15:30.075Z,10.56
2019-05-22T03:18:05.017Z,10.50
2019-05-22T03:20:35.842Z,10.43
2019-05-22T03:23:41.939Z,10.42
2019-05-22T03:26:13.307Z,10.39
2019-05-22T03:28:46.689Z,10.29
2019-05-22T03:31:19.034Z,10.18
2019-05-22T03:33:50.885Z,10.08
2019-05-22T03:36:22.279Z,10.18
2019-05-22T03:38:52.951Z,10.20
2019-05-22T03:41:23.205Z,10.14
2019-05-22T03:43:55.663Z,10.18
2019-05-22T03:46:35.883Z,10.08
2019-05-22T03:49:08.008Z,10.10
2019-05-22T03:51:38.976Z,10.15
2019-05-22T03:54:10.903Z,10.12
2019-05-22T03:56:42.401Z,10.21
2019-05-22T03:59:13.476Z,10.28
2019-05-22T04:01:45.051Z,10.36
2019-05-22T04:04:37.164Z,10.35
2019-05-22T04:07:10.825Z,10.27
2019-05-22T04:09:43.019Z,10.26
2019-05-22T04:12:14.545Z,10.22
2019-05-22T04:14:46.055Z,10.14
2019-05-22T04:17:17.574Z,10.13
2019-05-22T04:19:51.435Z,10.13
2019-05-22T04:22:21.539Z,10.09
2019-05-22T04:24:51.869Z,10.03
2019-05-22T04:27:23.561Z,10.03
2019-05-22T04:29:54.030Z,10.02
2019-05-22T04:32:35.055Z,10.02
2019-05-22T04:35:09.300Z,10.06
2019-05-22T04:37:40.747Z,10.05
2019-05-22T04:40:51.343Z,10.03
2019-05-22T04:43:23.779Z,10.01
2019-05-22T04:45:56.971Z,10.08
2019-05-22T04:48:27.750Z,10.18
2019-05-22T04:51:07.323Z,10.28
2019-05-22T04:53:38.488Z,10.30
2019-05-22T04:56:11.492Z,10.40
2019-05-22T04:58:42.214Z,10.41
2019-05-22T05:01:14.096Z,10.49
2019-05-22T05:03:44.367Z,10.51
2019-05-22T05:06:15.021Z,10.55
2019-05-22T05:08:45.587Z,10.58
2019-05-22T05:11:17.535Z,10.59
2019-05-22T05:14:06.744Z,10.62
2019-05-22T05:16:38.797Z,10.63
2019-05-22T05:19:08.965Z,10.64
2019-05-22T05:21:40.078Z,10.57
2019-05-22T05:24:10.201Z,10.63
2019-05-22T05:26:41.337Z,10.56
2019-05-22T05:29:33.512Z,10.55
2019-05-22T05:32:06.186Z,10.59
2019-05-22T05:34:47.929Z,10.60
2019-05-22T05:37:23.103Z,10.53
2019-05-22T05:40:41.677Z,10.49
2019-05-22T05:43:15.806Z,10.61
2019-05-22T05:45:51.986Z,10.69
2019-05-22T05:48:23.775Z,10.74
2019-05-22T05:51:30.402Z,10.66
2019-05-22T05:54:06.200Z,10.74
2019-05-22T05:56:39.236Z,10.76
2019-05-22T05:59:12.243Z,10.83
2019-05-22T06:01:48.859Z,10.93
2019-05-22T06:04:34.639Z,11.03
2019-05-22T06:07:18.985Z,10.99
2019-05-22T06:10:13.393Z,10.95
2019-05-22T06:12:43.883Z,11.16
2019-05-22T06:15:15.088Z,11.19
2019-05-22T06:18:44.452Z,11.11
2019-05-22T06:21:14.668Z,11.13
2019-05-22T06:24:28.086Z,11.21
2019-05-22T06:27:30.045Z,11.15
2019-05-22T06:30:13.321Z,11.19
2019-05-22T06:33:20.600Z,11.24
2019-05-22T06:35:52.321Z,11.18
2019-05-22T06:39:03.176Z,11.31
2019-05-22T06:41:35.706Z,11.38
2019-05-22T06:44:42.587Z,11.41
2019-05-22T06:47:18.124Z,11.90
2019-05-22T06:49:57.083Z,11.89
2019-05-22T06:52:28.088Z,11.81
2019-05-22T06:54:58.773Z,12.20
2019-05-22T06:57:33.150Z,11.99
2019-05-22T07:00:15.220Z,11.76
2019-05-22T07:02:45.700Z,11.93
2019-05-22T07:05:16.373Z,12.26
2019-05-22T07:07:47.023Z,12.79
2019-05-22T07:10:17.166Z,12.14
2019-05-22T07:12:50.527Z,12.14
2019-05-22T07:15:31.761Z,12.56
2019-05-22T07:18:03.115Z,12.47
2019-05-22T07:20:35.669Z,12.34
2019-05-22T07:23:08.035Z,12.33
2019-05-22T07:25:40.223Z,12.46
2019-05-22T07:28:12.477Z,12.28
2019-05-22T07:30:42.848Z,12.30
2019-05-22T07:33:13.379Z,12.43
2019-05-22T07:35:56.724Z,12.34
2019-05-22T07:38:17.535Z,12.38
2019-05-22T07:40:50.398Z,12.47
2019-05-22T07:43:22.523Z,12.51
2019-05-22T07:45:55.617Z,12.09
2019-05-22T07:48:28.982Z,12.12
2019-05-22T07:50:59.542Z,12.44
2019-05-22T07:53:29.862Z,12.98
2019-05-22T07:56:02.701Z,13.20
2019-05-22T07:58:34.874Z,13.60
2019-05-22T08:01:09.655Z,12.94
2019-05-22T08:03:42.924Z,12.52
2019-05-22T08:06:17.028Z,12.95
2019-05-22T08:08:49.282Z,12.73
2019-05-22T08:11:19.808Z,12.88
2019-05-22T08:13:50.625Z,12.85
2019-05-22T08:16:21.085Z,12.89
2019-05-22T08:18:51.956Z,13.16
2019-05-22T08:21:23.606Z,13.03
2019-05-22T08:23:55.714Z,13.14
2019-05-22T08:26:27.064Z,12.84
2019-05-22T08:29:01.647Z,13.30
2019-05-22T08:31:32.062Z,13.04
2019-05-22T08:34:03.014Z,12.94
2019-05-22T08:36:38.444Z,13.96
2019-05-22T08:39:10.035Z,13.54
2019-05-22T08:41:43.302Z,13.50
2019-05-22T08:44:17.277Z,13.50
2019-05-22T08:46:46.920Z,13.72
2019-05-22T08:49:17.605Z,14.32
2019-05-22T08:51:48.827Z,14.50
2019-05-22T08:54:19.890Z,14.02
2019-05-22T08:56:51.459Z,14.12
2019-05-22T08:59:22.176Z,14.45
2019-05-22T09:01:54.708Z,14.04
2019-05-22T09:04:25.021Z,14.73
2019-05-22T22:12:52.515Z,10.35
2019-05-22T22:15:23.236Z,10.10
2019-05-22T22:17:53.589Z,10.23
2019-05-22T22:20:24.208Z,10.04
2019-05-22T22:22:54.459Z,10.04
2019-05-22T22:25:25.596Z,10.02
2019-05-22T22:27:56.079Z,10.01
2019-05-22T22:30:37.693Z,10.07
2019-05-22T22:33:10.595Z,10.05
2019-05-22T22:35:41.259Z,9.95
2019-05-22T22:38:11.649Z,9.86
2019-05-22T22:40:43.989Z,9.96
2019-05-22T22:43:15.429Z,9.91
2019-05-22T22:45:56.917Z,9.88
2019-05-22T22:48:33.013Z,9.91
2019-05-22T22:51:06.696Z,9.82
2019-05-22T22:53:49.693Z,9.73
2019-05-22T22:56:29.344Z,9.62
2019-05-22T22:59:10.598Z,9.64
2019-05-22T23:01:43.694Z,9.64
2019-05-22T23:04:16.653Z,9.57
2019-05-22T23:06:46.908Z,9.61
2019-05-22T23:09:18.766Z,9.59
2019-05-22T23:11:51.129Z,9.59
2019-05-22T23:14:23.030Z,9.75
2019-05-22T23:16:54.429Z,9.74
2019-05-22T23:19:32.083Z,9.76
2019-05-22T23:22:01.499Z,9.84
2019-05-22T23:24:37.982Z,9.78
2019-05-22T23:27:10.355Z,9.72
2019-05-22T23:29:42.368Z,9.72
2019-05-22T23:32:16.966Z,9.67
2019-05-22T23:34:48.106Z,9.59
2019-05-22T23:37:21.189Z,9.72
2019-05-22T23:39:53.827Z,9.64
2019-05-22T23:42:35.704Z,9.59
2019-05-22T23:45:10.411Z,9.70
2019-05-22T23:47:50.937Z,9.63
2019-05-22T23:50:23.247Z,9.67
2019-05-22T23:52:54.383Z,9.66
2019-05-22T23:55:25.402Z,9.67
2019-05-22T23:57:56.103Z,9.67
